Impacts TAF Board INFO
FOR SITUATIONAL AWARENESS. NOT TO BE USED FOR FLIGHT PLANNING PURPOSES.
IDs:

KPHX - Phoenix/Sky Harbor, AZ, US

Issued at 1728 UTC 15 Aug 2018
Updated at 2043 UTC 15 Aug 2018
Potential Impact None Slight Moderate High
Time1951Z 15/21Z 15/22Z 15/23Z 16/00Z 16/01Z 16/02Z 16/03Z 16/04Z 16/05Z 16/06Z 16/07Z 16/08Z 16/09Z>>
Type OBS PRVL PRVL PRVL PRVL PRVL PRVL PRVL PRVL PRVL PRVL PRVL PRVL PRVL
VIS 10 >6 >6 >6 >6 >6 >6 >6 >6 >6 >6 >6 >6 >6
CIG 220 160 160 160 160 160 160 160 160 160 160 160 80 80
Cover BKN BKN BKN BKN BKN BKN BKN BKN BKN BKN BKN BKN BKN BKN
FltCat VFR VFR VFR VFR VFR VFR VFR VFR VFR VFR VFR VFR VFR VFR
WX -- -- -- -- -- -- -- -- -- -- -- -- VCSH VCSH
WDir VRB 240 240 240 240 240 240 240 240 240 240 240 140 140
WSpd 3 8 8 8 8 8 8 8 8 8 8 8 10 10
WGst -- -- -- -- -- -- -- -- -- -- -- -- 20 20

Raw TAF
KPHX 151728Z 1518/1624 14006KT P6SM SCT150 BKN250
  FM151900 24008KT P6SM SCT120 BKN160
  FM160800 14010G20KT P6SM VCSH BKN080 BKN120 BKN250
  FM161800 29010KT P6SM BKN080 BKN150


Raw METAR
KPHX 151951Z VRB03KT 10SM FEW050 SCT160 BKN220 BKN250 31/19 A2992 RMK AO2 SLP111 T03110194
KPHX 151851Z 16007KT 10SM FEW050 SCT140 BKN180 BKN220 31/19 A2993 RMK AO2 SLP117 T03110194
KPHX 151751Z 15007KT 10SM SCT140 BKN180 BKN220 31/19 A2994 RMK AO2 SLP117 T03110189 10311 20278 51009

METAR Board
Radar Display
Forecast Discussion

FOR SITUATIONAL AWARENESS. NOT TO BE USED FOR FLIGHT PLANNING PURPOSES.